Genco Loire — V7GN8 — position and weather

sailwx.info

Track history (hours):
 
Tides and Currents Weather Stations Pressure Air Temp Water Temp Dewpoint Dewpoint Depression Visibility Wind Speed Wind Dir Waves Ship Positions

Genco Loire

Last reported at 2016-Jul-27 15:26 UTC. Time now 2016-Jul-28 20:17 UTC.
Position N 57°50' E 010°29'.

Length 190 m; draft 11.6 m.

MMSI: 538002760.

Date/timePositionNaut miles runAvg speedWind from/ knotsBaromVisibWave heightAir tempDewpointWater temp
2016-Jul-27 15:26N 57°50' E 010°29'8 9.5
2016-Jul-27 14:33N 57°49' E 010°45'1110.9
2016-Jul-27 13:33N 57°41' E 010°60'1212.0
2016-Jul-27 12:33N 57°33' E 011°16'1211.7
2016-Jul-27 11:34N 57°24' E 011°29'1312.5
2016-Jul-27 10:33N 57°12' E 011°37'1212.2
2016-Jul-27 09:33N 57°00' E 011°44'1211.7
2016-Jul-27 08:33N 56°49' E 011°51'9910.8
2016-Jul-26 23:23N 55°14' E 011°06'910.8
2016-Jul-26 22:33N 55°05' E 010°59'1110.8
2016-Jul-26 21:33N 54°55' E 010°52'1111.4
2016-Jul-26 20:33N 54°44' E 010°47'7 7.2
2016-Jul-26 19:33N 54°38' E 010°54'1010.0
2016-Jul-26 18:33N 54°36' E 011°11'1110.7
2016-Jul-26 17:33N 54°31' E 011°27'1111.1
2016-Jul-26 16:33N 54°27' E 011°45'1110.7
2016-Jul-26 15:33N 54°26' E 012°03'9 9.2
2016-Jul-26 14:33N 54°32' E 012°14'1010.2
2016-Jul-26 13:34N 54°40' E 012°25'50 9.9
2016-Jul-26 08:27N 54°42' E 013°52'1010.9
2016-Jul-26 07:33N 54°41' E 014°09'1411.3
2016-Jul-26 06:19N 54°38' E 014°33'811.3
2016-Jul-26 05:33N 54°39' E 014°47'1211.2
2016-Jul-26 04:31N 54°41' E 015°07'1111.2
2016-Jul-26 03:33N 54°43' E 015°26'1111.2
2016-Jul-26 02:34N 54°44' E 015°45'1211.2
2016-Jul-26 01:32N 54°46' E 016°04'1111.0
2016-Jul-26 00:33N 54°48' E 016°23'1110.9
2016-Jul-25 23:33N 54°50' E 016°41'1611.3
2016-Jul-25 22:09N 54°53' E 017°08'711.4
2016-Jul-25 21:33N 54°55' E 017°20'1111.4
2016-Jul-25 20:33N 54°58' E 017°39'1111.2
2016-Jul-25 19:33N 54°59' E 017°58'1211.7
2016-Jul-25 18:33N 54°59' E 018°19'1111.4
2016-Jul-25 17:34N 54°57' E 018°38'1111.3
2016-Jul-25 16:33N 54°53' E 018°56'1111.2
2016-Jul-25 15:34N 54°48' E 019°14'1111.2
2016-Jul-25 14:33N 54°43' E 019°31'9 9.3
2016-Jul-25 13:33N 54°39' E 019°46'0 0.2
2016-Jul-25 12:33N 54°39' E 019°46'0 0.0
2016-Jul-25 11:33N 54°39' E 019°46'0 0.0
2016-Jul-25 10:27N 54°39' E 019°46'0 0.0
2016-Jul-25 09:33N 54°39' E 019°46'0 0.0
2016-Jul-25 08:33N 54°39' E 019°46'0 0.0
2016-Jul-25 07:33N 54°39' E 019°46'0 0.0
2016-Jul-25 06:30N 54°39' E 019°46'0 0.0
2016-Jul-25 05:27N 54°39' E 019°46'0 0.0
2016-Jul-25 04:33N 54°39' E 019°46'0 0.0
2016-Jul-25 03:15N 54°39' E 019°46'0 0.0
2016-Jul-25 02:33N 54°39' E 019°46'0 0.0
2016-Jul-25 01:33N 54°39' E 019°46'0 0.0
2016-Jul-25 00:33N 54°39' E 019°46'0 0.0
2016-Jul-24 23:33N 54°39' E 019°46'0 0.0
2016-Jul-24 22:33N 54°39' E 019°46'0 0.0
2016-Jul-24 21:30N 54°39' E 019°46'0 0.2
2016-Jul-24 20:33N 54°39' E 019°46'5 5.3
2016-Jul-24 19:33N 54°43' E 019°40'1110.8
2016-Jul-24 18:34N 54°53' E 019°38'2210.9
2016-Jul-24 16:32N 55°15' E 019°46'  
2016-Jul-21 03:33N 55°43' E 021°06'0 0.0
2016-Jul-20 14:13N 55°43' E 021°06'0 0.0
2016-Jul-20 13:33N 55°43' E 021°06'0 0.0
2016-Jul-20 12:18N 55°43' E 021°06'0 0.0
2016-Jul-20 11:34N 55°43' E 021°06'0 0.0
2016-Jul-20 10:33N 55°43' E 021°06'0 0.0
2016-Jul-20 09:34N 55°43' E 021°06'0 0.0
2016-Jul-20 08:33N 55°43' E 021°06'0 0.0
2016-Jul-20 07:33N 55°43' E 021°06'0 0.0
2016-Jul-20 06:34N 55°43' E 021°06'0 0.0
2016-Jul-20 05:33N 55°43' E 021°06'0 0.0
2016-Jul-20 04:33N 55°43' E 021°06'0 0.0
2016-Jul-20 03:33N 55°43' E 021°06'0 0.0
2016-Jul-20 02:34N 55°43' E 021°06'0 0.0
2016-Jul-20 01:23N 55°43' E 021°06'0 0.0
2016-Jul-20 00:34N 55°43' E 021°06'0 0.0
2016-Jul-19 23:33N 55°43' E 021°06'0 0.0
2016-Jul-19 22:34N 55°43' E 021°06'0 0.0
2016-Jul-19 21:34N 55°43' E 021°06'8 2.4
2016-Jul-19 18:09N 55°43' E 020°52'  
Track history (hours):
 
Tides and Currents Weather Stations Pressure Air Temp Water Temp Dewpoint Dewpoint Depression Visibility Wind Speed Wind Dir Waves Ship Positions

Genco Loire

Last reported at 2016-Jul-27 15:26 UTC. Time now 2016-Jul-28 20:17 UTC.
Position N 57°50' E 010°29'.

Length 190 m; draft 11.6 m.

MMSI: 538002760.

Date/timePositionNaut miles runAvg speedWind from/ knotsBaromVisibWave heightAir tempDewpointWater temp
2016-Jul-27 15:26N 57°50' E 010°29'8 9.5
2016-Jul-27 14:33N 57°49' E 010°45'1110.9
2016-Jul-27 13:33N 57°41' E 010°60'1212.0
2016-Jul-27 12:33N 57°33' E 011°16'1211.7
2016-Jul-27 11:34N 57°24' E 011°29'1312.5
2016-Jul-27 10:33N 57°12' E 011°37'1212.2
2016-Jul-27 09:33N 57°00' E 011°44'1211.7
2016-Jul-27 08:33N 56°49' E 011°51'9910.8
2016-Jul-26 23:23N 55°14' E 011°06'910.8
2016-Jul-26 22:33N 55°05' E 010°59'1110.8
2016-Jul-26 21:33N 54°55' E 010°52'1111.4
2016-Jul-26 20:33N 54°44' E 010°47'7 7.2
2016-Jul-26 19:33N 54°38' E 010°54'1010.0
2016-Jul-26 18:33N 54°36' E 011°11'1110.7
2016-Jul-26 17:33N 54°31' E 011°27'1111.1
2016-Jul-26 16:33N 54°27' E 011°45'1110.7
2016-Jul-26 15:33N 54°26' E 012°03'9 9.2
2016-Jul-26 14:33N 54°32' E 012°14'1010.2
2016-Jul-26 13:34N 54°40' E 012°25'50 9.9
2016-Jul-26 08:27N 54°42' E 013°52'1010.9
2016-Jul-26 07:33N 54°41' E 014°09'1411.3
2016-Jul-26 06:19N 54°38' E 014°33'811.3
2016-Jul-26 05:33N 54°39' E 014°47'1211.2
2016-Jul-26 04:31N 54°41' E 015°07'1111.2
2016-Jul-26 03:33N 54°43' E 015°26'1111.2
2016-Jul-26 02:34N 54°44' E 015°45'1211.2
2016-Jul-26 01:32N 54°46' E 016°04'1111.0
2016-Jul-26 00:33N 54°48' E 016°23'1110.9
2016-Jul-25 23:33N 54°50' E 016°41'1611.3
2016-Jul-25 22:09N 54°53' E 017°08'711.4
2016-Jul-25 21:33N 54°55' E 017°20'1111.4
2016-Jul-25 20:33N 54°58' E 017°39'1111.2
2016-Jul-25 19:33N 54°59' E 017°58'1211.7
2016-Jul-25 18:33N 54°59' E 018°19'1111.4
2016-Jul-25 17:34N 54°57' E 018°38'1111.3
2016-Jul-25 16:33N 54°53' E 018°56'1111.2
2016-Jul-25 15:34N 54°48' E 019°14'1111.2
2016-Jul-25 14:33N 54°43' E 019°31'9 9.3
2016-Jul-25 13:33N 54°39' E 019°46'0 0.2
2016-Jul-25 12:33N 54°39' E 019°46'0 0.0
2016-Jul-25 11:33N 54°39' E 019°46'0 0.0
2016-Jul-25 10:27N 54°39' E 019°46'0 0.0
2016-Jul-25 09:33N 54°39' E 019°46'0 0.0
2016-Jul-25 08:33N 54°39' E 019°46'0 0.0
2016-Jul-25 07:33N 54°39' E 019°46'0 0.0
2016-Jul-25 06:30N 54°39' E 019°46'0 0.0
2016-Jul-25 05:27N 54°39' E 019°46'0 0.0
2016-Jul-25 04:33N 54°39' E 019°46'0 0.0
2016-Jul-25 03:15N 54°39' E 019°46'0 0.0
2016-Jul-25 02:33N 54°39' E 019°46'0 0.0
2016-Jul-25 01:33N 54°39' E 019°46'0 0.0
2016-Jul-25 00:33N 54°39' E 019°46'0 0.0
2016-Jul-24 23:33N 54°39' E 019°46'0 0.0
2016-Jul-24 22:33N 54°39' E 019°46'0 0.0
2016-Jul-24 21:30N 54°39' E 019°46'0 0.2
2016-Jul-24 20:33N 54°39' E 019°46'5 5.3
2016-Jul-24 19:33N 54°43' E 019°40'1110.8
2016-Jul-24 18:34N 54°53' E 019°38'2210.9
2016-Jul-24 16:32N 55°15' E 019°46'  
2016-Jul-21 03:33N 55°43' E 021°06'0 0.0
2016-Jul-20 14:13N 55°43' E 021°06'0 0.0
2016-Jul-20 13:33N 55°43' E 021°06'0 0.0
2016-Jul-20 12:18N 55°43' E 021°06'0 0.0
2016-Jul-20 11:34N 55°43' E 021°06'0 0.0
2016-Jul-20 10:33N 55°43' E 021°06'0 0.0
2016-Jul-20 09:34N 55°43' E 021°06'0 0.0
2016-Jul-20 08:33N 55°43' E 021°06'0 0.0
2016-Jul-20 07:33N 55°43' E 021°06'0 0.0
2016-Jul-20 06:34N 55°43' E 021°06'0 0.0
2016-Jul-20 05:33N 55°43' E 021°06'0 0.0
2016-Jul-20 04:33N 55°43' E 021°06'0 0.0
2016-Jul-20 03:33N 55°43' E 021°06'0 0.0
2016-Jul-20 02:34N 55°43' E 021°06'0 0.0
2016-Jul-20 01:23N 55°43' E 021°06'0 0.0
2016-Jul-20 00:34N 55°43' E 021°06'0 0.0
2016-Jul-19 23:33N 55°43' E 021°06'0 0.0
2016-Jul-19 22:34N 55°43' E 021°06'0 0.0
2016-Jul-19 21:34N 55°43' E 021°06'8 2.4
2016-Jul-19 18:09N 55°43' E 020°52'  

Dump ship's entire track history